Flight Track Log - Related Links

Times and Time Zones

All times are in EDT time to prevent confusion due to time zone crossing. See the AAR272 flight status page for this flight to view local times or setup timezone preferences in your user account.

Time Position Orientation Groundspeed Altitude Reporting Facility
EDT Latitude Longitude Course Direction KTS MPH feet Rate Location/Type
Fri 06:11:15 AM 37.4625 126.4941 57° Northeast  Level FlightAware Approximate
Fri 06:12:15 AM 37.4833 126.6683 57° Northeast  Level FlightAware Approximate
Fri 06:13:15 AM 37.4834 126.8457 57° Northeast  Level FlightAware Approximate
Fri 06:14:15 AM 37.4834 127.0231 57° Northeast  Level FlightAware Approximate
Fri 06:15:15 AM 37.4833 127.2006 57° Northeast  Level FlightAware Approximate
Fri 06:16:15 AM 37.4848 127.3779 57° Northeast  Level FlightAware Approximate
Fri 06:17:15 AM 37.4415 127.5466 57° Northeast  Level FlightAware Approximate
Fri 06:18:15 AM 37.5225 127.6752 57° Northeast  Level FlightAware Approximate
Fri 06:19:15 AM 37.4742 127.8420 57° Northeast  Level FlightAware Approximate
Fri 06:20:15 AM 37.4257 128.0085 57° Northeast  Level FlightAware Approximate
Fri 06:21:15 AM 37.3988 128.1824 57° Northeast  Level FlightAware Approximate
Fri 06:22:15 AM 37.3717 128.3563 57° Northeast  Level FlightAware Approximate
Fri 06:23:15 AM 37.3442 128.5301 56° Northeast  Level FlightAware Approximate
Fri 06:24:15 AM 37.3166 128.7037 56° Northeast  Level FlightAware Approximate
Fri 06:25:15 AM 37.2887 128.8772 56° Northeast  Level FlightAware Approximate
Fri 06:26:15 AM 37.2605 129.0506 56° Northeast  Level FlightAware Approximate
Fri 06:27:15 AM 37.2320 129.2238 56° Northeast  Level FlightAware Approximate
Fri 06:28:15 AM 37.2034 129.3969 56° Northeast  Level FlightAware Approximate
Fri 06:29:15 AM 37.1744 129.5699 56° Northeast  Level FlightAware Approximate
Fri 06:30:15 AM 37.1452 129.7427 56° Northeast  Level FlightAware Approximate
Fri 06:31:15 AM 37.1158 129.9154 56° Northeast  Level FlightAware Approximate
Fri 06:32:15 AM 37.0861 130.0880 55° Northeast  Level FlightAware Approximate
Fri 06:33:15 AM 37.0562 130.2604 55° Northeast  Level FlightAware Approximate
Fri 06:34:15 AM 37.0260 130.4327 55° Northeast  Level FlightAware Approximate
Fri 06:35:15 AM 36.9956 130.6048 55° Northeast  Level FlightAware Approximate
Fri 06:36:15 AM 36.9649 130.7769 55° Northeast  Level FlightAware Approximate
Fri 06:37:15 AM 36.9509 130.9522 55° Northeast  Level FlightAware Approximate
Fri 06:38:15 AM 36.9366 131.1274 55° Northeast  Level FlightAware Approximate
Fri 06:39:15 AM 36.9343 131.3036 55° Northeast  Level FlightAware Approximate
Fri 06:40:15 AM 36.9317 131.4797 55° Northeast  Level FlightAware Approximate
Fri 06:41:15 AM 36.9289 131.6558 55° Northeast  Level FlightAware Approximate
Fri 06:42:15 AM 36.9258 131.8319 55° Northeast  Level FlightAware Approximate
Fri 06:43:15 AM 36.9224 132.0079 54° Northeast  Level FlightAware Approximate
Fri 06:44:15 AM 36.9188 132.1840 54° Northeast  Level FlightAware Approximate
Fri 06:45:15 AM 36.9149 132.3600 54° Northeast  Level FlightAware Approximate
Fri 06:46:15 AM 36.9108 132.5361 54° Northeast  Level FlightAware Approximate
Fri 06:47:15 AM 36.9064 132.7121 54° Northeast  Level FlightAware Approximate
Fri 06:48:15 AM 36.9017 132.8880 54° Northeast  Level FlightAware Approximate
Fri 06:49:15 AM 36.8968 133.0640 54° Northeast  Level FlightAware Approximate
Fri 06:50:15 AM 36.8916 133.2399 54° Northeast  Level FlightAware Approximate
Fri 06:51:15 AM 36.8862 133.4159 54° Northeast  Level FlightAware Approximate
Fri 06:52:15 AM 36.8805 133.5918 54° Northeast  Level FlightAware Approximate
Fri 06:53:15 AM 36.8745 133.7676 53° Northeast  Level FlightAware Approximate
Fri 06:54:15 AM 36.8683 133.9434 53° Northeast  Level FlightAware Approximate
Fri 06:55:15 AM 36.8692 134.1194 53° Northeast  Level FlightAware Approximate
Fri 06:56:15 AM 36.8698 134.2954 53° Northeast  Level FlightAware Approximate
Fri 06:57:15 AM 36.8701 134.4714 53° Northeast  Level FlightAware Approximate
Fri 06:58:15 AM 36.8702 134.6474 53° Northeast  Level FlightAware Approximate
Fri 06:59:15 AM 36.8701 134.8234 53° Northeast  Level FlightAware Approximate
Fri 07:00:15 AM 36.8696 134.9994 53° Northeast  Level FlightAware Approximate
Fri 07:01:15 AM 36.8689 135.1754 53° Northeast  Level FlightAware Approximate
Fri 07:02:15 AM 36.8680 135.3514 53° Northeast  Level FlightAware Approximate
Fri 07:03:15 AM 36.8668 135.5274 52° Northeast  Level FlightAware Approximate
Fri 07:04:15 AM 36.8653 135.7034 52° Northeast  Level FlightAware Approximate
Fri 07:05:15 AM 36.8636 135.8794 52° Northeast  Level FlightAware Approximate
Fri 07:06:15 AM 36.8616 136.0553 52° Northeast  Level FlightAware Approximate
Fri 07:07:15 AM 36.8672 136.2312 52° Northeast  Level FlightAware Approximate
Fri 07:08:15 AM 36.8726 136.4070 52° Northeast  Level FlightAware Approximate
Fri 07:09:15 AM 36.8778 136.5829 52° Northeast  Level FlightAware Approximate
Fri 07:10:15 AM 36.8826 136.7589 52° Northeast  Level FlightAware Approximate
Fri 07:11:15 AM 36.8873 136.9348 52° Northeast  Level FlightAware Approximate
Fri 07:12:15 AM 36.8916 137.1108 51° Northeast  Level FlightAware Approximate
Fri 07:13:15 AM 36.8957 137.2867 51° Northeast  Level FlightAware Approximate
Fri 07:14:15 AM 36.8996 137.4627 51° Northeast  Level FlightAware Approximate
Fri 07:15:15 AM 36.9031 137.6387 51° Northeast  Level FlightAware Approximate
Fri 07:16:15 AM 36.9065 137.8148 51° Northeast  Level FlightAware Approximate
Fri 07:17:15 AM 36.9095 137.9908 51° Northeast  Level FlightAware Approximate
Fri 07:18:15 AM 36.9123 138.1669 51° Northeast  Level FlightAware Approximate
Fri 07:19:15 AM 36.9149 138.3429 51° Northeast  Level FlightAware Approximate
Fri 07:20:15 AM 36.9216 138.5188 50° Northeast  Level FlightAware Approximate
Fri 07:21:15 AM 36.9280 138.6948 50° Northeast  Level FlightAware Approximate
Fri 07:22:15 AM 36.9342 138.8708 50° Northeast  Level FlightAware Approximate
Fri 07:23:15 AM 36.9401 139.0468 50° Northeast  Level FlightAware Approximate
Fri 07:24:15 AM 36.9457 139.2228 50° Northeast  Level FlightAware Approximate
Fri 07:25:15 AM 36.9569 139.3984 50° Northeast  Level FlightAware Approximate
Fri 07:26:15 AM 36.9677 139.5741 50° Northeast  Level FlightAware Approximate
Fri 07:27:15 AM 36.9784 139.7499 50° Northeast  Level FlightAware Approximate
Fri 07:28:15 AM 36.9887 139.9256 49° Northeast  Level FlightAware Approximate
Fri 07:29:15 AM 36.9988 140.1015 49° Northeast  Level FlightAware Approximate
Fri 07:30:15 AM 37.0087 140.2774 49° Northeast  Level FlightAware Approximate
Fri 07:31:15 AM 37.0182 140.4533 49° Northeast  Level FlightAware Approximate
Fri 07:32:15 AM 37.0275 140.6292 49° Northeast  Level FlightAware Approximate
Fri 07:33:15 AM 37.0366 140.8053 49° Northeast  Level FlightAware Approximate
Fri 07:34:15 AM 37.0454 140.9813 48° Northeast  Level FlightAware Approximate
Fri 07:35:15 AM 37.0540 141.1574 48° Northeast  Level FlightAware Approximate
Fri 07:36:15 AM 37.1232 141.3110 48° Northeast  Level FlightAware Approximate
Fri 07:37:15 AM 37.1923 141.4650 48° Northeast  Level FlightAware Approximate
Fri 07:38:15 AM 37.2612 141.6192 48° Northeast  Level FlightAware Approximate
Fri 07:39:15 AM 37.3299 141.7737 48° Northeast  Level FlightAware Approximate
Fri 07:40:15 AM 37.3984 141.9285 48° Northeast  Level FlightAware Approximate
Fri 07:41:15 AM 37.4667 142.0835 48° Northeast  Level FlightAware Approximate
Fri 07:42:15 AM 37.5348 142.2389 48° Northeast  Level FlightAware Approximate
Fri 07:43:15 AM 37.6027 142.3945 48° Northeast  Level FlightAware Approximate
Fri 07:44:15 AM 37.6704 142.5504 48° Northeast  Level FlightAware Approximate
Fri 07:45:15 AM 37.7378 142.7066 48° Northeast  Level FlightAware Approximate
Fri 07:46:15 AM 37.8051 142.8631 48° Northeast  Level FlightAware Approximate
Fri 07:47:15 AM 37.8722 143.0199 48° Northeast  Level FlightAware Approximate
Fri 07:48:15 AM 37.9390 143.1769 48° Northeast  Level FlightAware Approximate
Fri 07:49:15 AM 38.0267 143.3167 48° Northeast  Level FlightAware Approximate
Fri 07:50:15 AM 38.1142 143.4568 48° Northeast  Level FlightAware Approximate
Fri 07:51:15 AM 38.2016 143.5972 48° Northeast  Level FlightAware Approximate
Fri 07:52:15 AM 38.2887 143.7380 49° Northeast  Level FlightAware Approximate
Fri 07:53:15 AM 38.3758 143.8791 49° Northeast  Level FlightAware Approximate
Fri 07:54:15 AM 38.4626 144.0206 49° Northeast  Level FlightAware Approximate
Fri 07:55:15 AM 38.5493 144.1624 49° Northeast  Level FlightAware Approximate
Fri 07:56:15 AM 38.6358 144.3045 49° Northeast  Level FlightAware Approximate
Fri 07:57:15 AM 38.7221 144.4470 49° Northeast  Level FlightAware Approximate
Fri 07:58:15 AM 38.8083 144.5898 49° Northeast  Level FlightAware Approximate
Fri 07:59:15 AM 38.8942 144.7330 49° Northeast  Level FlightAware Approximate
Fri 08:00:15 AM 38.9800 144.8765 49° Northeast  Level FlightAware Approximate
Fri 08:01:15 AM 39.0657 145.0204 49° Northeast  Level FlightAware Approximate
Fri 08:02:15 AM 39.1511 145.1646 49° Northeast  Level FlightAware Approximate
Fri 08:03:15 AM 39.2364 145.3091 49° Northeast  Level FlightAware Approximate
Fri 08:04:15 AM 39.3215 145.4541 49° Northeast  Level FlightAware Approximate
Fri 08:05:15 AM 39.4064 145.5993 49° Northeast  Level FlightAware Approximate
Fri 08:06:15 AM 39.4911 145.7450 49° Northeast  Level FlightAware Approximate
Fri 08:07:15 AM 39.5757 145.8909 49° Northeast  Level FlightAware Approximate
Fri 08:08:15 AM 39.6600 146.0373 49° Northeast  Level FlightAware Approximate
Fri 08:09:15 AM 39.7442 146.1840 49° Northeast  Level FlightAware Approximate
Fri 08:10:15 AM 39.8282 146.3310 50° Northeast  Level FlightAware Approximate
Fri 08:11:15 AM 39.9120 146.4784 50° Northeast  Level FlightAware Approximate
Fri 08:12:15 AM 39.9957 146.6262 50° Northeast  Level FlightAware Approximate
Fri 08:13:15 AM 40.0791 146.7743 50° Northeast  Level FlightAware Approximate
Fri 08:14:15 AM 40.1624 146.9228 50° Northeast  Level FlightAware Approximate
Fri 08:15:15 AM 40.2454 147.0717 50° Northeast  Level FlightAware Approximate
Fri 08:16:15 AM 40.3283 147.2209 50° Northeast  Level FlightAware Approximate
Fri 08:17:15 AM 40.4110 147.3705 50° Northeast  Level FlightAware Approximate
Fri 08:18:15 AM 40.4934 147.5205 50° Northeast  Level FlightAware Approximate
Fri 08:19:15 AM 40.5757 147.6708 50° Northeast  Level FlightAware Approximate
Fri 08:20:15 AM 40.6578 147.8215 50° Northeast  Level FlightAware Approximate
Fri 08:21:15 AM 40.7397 147.9726 50° Northeast  Level FlightAware Approximate
Fri 08:22:15 AM 40.8214 148.1240 50° Northeast  Level FlightAware Approximate
Fri 08:23:15 AM 40.9029 148.2758 50° Northeast  Level FlightAware Approximate
Fri 08:24:15 AM 40.9842 148.4280 50° Northeast  Level FlightAware Approximate
Fri 08:25:15 AM 41.0653 148.5806 50° Northeast  Level FlightAware Approximate
Fri 08:26:15 AM 41.1462 148.7335 50° Northeast  Level FlightAware Approximate
Fri 08:27:15 AM 41.2269 148.8868 50° Northeast  Level FlightAware Approximate
Fri 08:28:15 AM 41.3074 149.0405 50° Northeast  Level FlightAware Approximate
Fri 08:29:15 AM 41.3877 149.1946 50° Northeast  Level FlightAware Approximate
Fri 08:30:15 AM 41.4678 149.3490 50° Northeast  Level FlightAware Approximate
Fri 08:31:15 AM 41.5476 149.5039 50° Northeast  Level FlightAware Approximate
Fri 08:32:15 AM 41.6273 149.6591 51° Northeast  Level FlightAware Approximate
Fri 08:33:15 AM 41.7068 149.8147 51° Northeast  Level FlightAware Approximate
Fri 08:34:15 AM 41.7860 149.9707 51° Northeast  Level FlightAware Approximate
Fri 08:35:15 AM 41.8651 150.1271 51° Northeast  Level FlightAware Approximate
Fri 08:36:15 AM 41.9439 150.2838 51° Northeast  Level FlightAware Approximate
Fri 08:37:15 AM 42.0225 150.4410 51° Northeast  Level FlightAware Approximate
Fri 08:38:15 AM 42.1009 150.5985 51° Northeast  Level FlightAware Approximate
Fri 08:39:15 AM 42.1790 150.7565 51° Northeast  Level FlightAware Approximate
Fri 08:40:15 AM 42.2681 150.9037 51° Northeast  Level FlightAware Approximate
Fri 08:41:15 AM 42.3571 151.0513 51° Northeast  Level FlightAware Approximate
Fri 08:42:15 AM 42.4458 151.1994 51° Northeast  Level FlightAware Approximate
Fri 08:43:15 AM 42.5343 151.3478 51° Northeast  Level FlightAware Approximate
Fri 08:44:15 AM 42.6227 151.4967 51° Northeast  Level FlightAware Approximate
Fri 08:45:15 AM 42.7108 151.6460 51° Northeast  Level FlightAware Approximate
Fri 08:46:15 AM 42.7988 151.7958 51° Northeast  Level FlightAware Approximate
Fri 08:47:15 AM 42.8865 151.9459 52° Northeast  Level FlightAware Approximate
Fri 08:48:15 AM 42.9741 152.0965 52° Northeast  Level FlightAware Approximate
Fri 08:49:15 AM 43.0615 152.2475 52° Northeast  Level FlightAware Approximate
Fri 08:50:15 AM 43.1486 152.3990 52° Northeast  Level FlightAware Approximate
Fri 08:51:15 AM 43.2356 152.5509 52° Northeast  Level FlightAware Approximate
Fri 08:52:15 AM 43.3223 152.7032 52° Northeast  Level FlightAware Approximate
Fri 08:53:15 AM 43.4089 152.8559 52° Northeast  Level FlightAware Approximate
Fri 08:54:15 AM 43.4953 153.0091 52° Northeast  Level FlightAware Approximate
Fri 08:55:15 AM 43.5814 153.1628 52° Northeast  Level FlightAware Approximate
Fri 08:56:15 AM 43.6674 153.3168 52° Northeast  Level FlightAware Approximate
Fri 08:57:15 AM 43.7531 153.4713 53° Northeast  Level FlightAware Approximate
Fri 08:58:15 AM 43.8386 153.6263 53° Northeast  Level FlightAware Approximate
Fri 08:59:15 AM 43.9240 153.7817 53° Northeast  Level FlightAware Approximate
Fri 09:00:15 AM 44.0091 153.9375 53° Northeast  Level FlightAware Approximate
Fri 09:01:15 AM 44.0940 154.0938 53° Northeast  Level FlightAware Approximate
Fri 09:02:15 AM 44.1786 154.2505 53° Northeast  Level FlightAware Approximate
Fri 09:03:15 AM 44.2631 154.4077 53° Northeast  Level FlightAware Approximate
Fri 09:04:15 AM 44.3474 154.5654 53° Northeast  Level FlightAware Approximate
Fri 09:05:15 AM 44.4341 154.7205 54° Northeast  Level FlightAware Approximate
Fri 09:06:15 AM 44.5207 154.8762 54° Northeast  Level FlightAware Approximate
Fri 09:07:15 AM 44.6070 155.0323 54° Northeast  Level FlightAware Approximate
Fri 09:08:15 AM 44.6931 155.1889 54° Northeast  Level FlightAware Approximate
Fri 09:09:15 AM 44.7791 155.3459 54° Northeast  Level FlightAware Approximate
Fri 09:10:15 AM 44.8648 155.5034 54° Northeast  Level FlightAware Approximate
Fri 09:11:15 AM 44.9502 155.6614 54° Northeast  Level FlightAware Approximate
Fri 09:12:15 AM 45.0355 155.8198 55° Northeast  Level FlightAware Approximate
Fri 09:13:15 AM 45.1205 155.9787 55° Northeast  Level FlightAware Approximate
Fri 09:14:15 AM 45.2054 156.1381 55° Northeast  Level FlightAware Approximate
Fri 09:15:15 AM 45.2900 156.2980 55° Northeast  Level FlightAware Approximate
Fri 09:16:15 AM 45.3743 156.4583 55° Northeast  Level FlightAware Approximate
Fri 09:17:15 AM 45.4585 156.6192 56° Northeast  Level FlightAware Approximate
Fri 09:18:15 AM 45.5424 156.7805 56° Northeast  Level FlightAware Approximate
Fri 09:19:15 AM 45.6261 156.9423 56° Northeast  Level FlightAware Approximate
Fri 09:20:15 AM 45.7096 157.1045 56° Northeast  Level FlightAware Approximate
Fri 09:21:15 AM 45.7928 157.2673 56° Northeast  Level FlightAware Approximate
Fri 09:22:15 AM 45.8758 157.4305 57° Northeast  Level FlightAware Approximate
Fri 09:23:15 AM 45.9586 157.5942 57° Northeast  Level FlightAware Approximate
Fri 09:24:15 AM 46.0411 157.7585 57° Northeast  Level FlightAware Approximate
Fri 09:25:15 AM 46.1234 157.9232 57° Northeast  Level FlightAware Approximate
Fri 09:26:15 AM 46.2055 158.0883 58° Northeast  Level FlightAware Approximate
Fri 09:27:15 AM 46.2873 158.2540 58° Northeast  Level FlightAware Approximate
Fri 09:28:15 AM 46.3689 158.4202 58° Northeast  Level FlightAware Approximate
Fri 09:29:15 AM 46.4502 158.5869 59° Northeast  Level FlightAware Approximate
Fri 09:30:15 AM 46.5313 158.7541 59° Northeast  Level FlightAware Approximate
Fri 09:31:15 AM 46.6121 158.9218 59° Northeast  Level FlightAware Approximate
Fri 09:32:15 AM 46.6928 159.0900 60° Northeast  Level FlightAware Approximate
Fri 09:33:15 AM 46.7731 159.2586 60° Northeast  Level FlightAware Approximate
Fri 09:34:15 AM 46.8532 159.4278 61° Northeast  Level FlightAware Approximate
Fri 09:35:15 AM 46.9331 159.5975 62° Northeast  Level FlightAware Approximate
Fri 09:36:15 AM 47.0127 159.7677 63° Northeast  Level FlightAware Approximate
Fri 09:37:15 AM 47.0921 159.9384 64° Northeast  Level FlightAware Approximate
Fri 09:38:15 AM 47.1712 160.1096 65° Northeast  Level FlightAware Approximate
Fri 09:39:15 AM 47.2500 160.2814 67° East  Level FlightAware Approximate
Fri 09:40:15 AM 47.3286 160.4536 69° East  Level FlightAware Approximate
Fri 09:41:15 AM 47.4069 160.6263 73° East  Level FlightAware Approximate
Fri 09:42:15 AM 47.4850 160.7996 80° East  Level FlightAware Approximate
Fri 09:43:15 AM 47.5628 160.9734 93° East  Level FlightAware Approximate
Fri 09:44:15 AM 47.6404 161.1476 126° Southeast  Level FlightAware Approximate
Fri 09:45:15 AM 47.7176 161.3224 177° South  Level FlightAware Approximate
Fri 09:46:15 AM 47.7947 161.4978 204° Southwest  Level FlightAware Approximate
Fri 09:47:15 AM 47.8714 161.6736 216° Southwest  Level FlightAware Approximate
Fri 09:48:15 AM 47.9504 161.8475 221° Southwest  Level FlightAware Approximate
Fri 09:49:15 AM 48.0291 162.0220 224° Southwest  Level FlightAware Approximate
Fri 09:50:15 AM 48.1075 162.1970 226° Southwest  Level FlightAware Approximate
Fri 09:51:15 AM 48.1857 162.3725 228° Southwest  Level FlightAware Approximate
Fri 09:52:15 AM 48.2636 162.5486 229° Southwest  Level FlightAware Approximate
Fri 09:53:15 AM 48.3412 162.7251 230° Southwest  Level FlightAware Approximate
Fri 09:54:15 AM 48.4185 162.9023 231° Southwest  Level FlightAware Approximate
Fri 09:55:15 AM 48.4956 163.0799 232° Southwest  Level FlightAware Approximate
Fri 09:56:15 AM 48.5724 163.2581 232° Southwest  Level FlightAware Approximate
Fri 09:57:15 AM 48.6490 163.4369 233° Southwest  Level FlightAware Approximate
Fri 09:58:15 AM 48.7252 163.6162 233° Southwest  Level FlightAware Approximate
Fri 09:59:15 AM 48.8012 163.7960 234° Southwest  Level FlightAware Approximate
Fri 10:00:15 AM 48.8769 163.9764 234° Southwest  Level FlightAware Approximate
Fri 10:01:15 AM 48.9523 164.1573 234° Southwest  Level FlightAware Approximate
Fri 10:02:15 AM 49.0275 164.3388 235° Southwest  Level FlightAware Approximate
Fri 10:02:27 AM 47.5500 161.3333 54° Northeast 484 557 37,000  Level Anchorage Center
Fri 10:11:02 AM 48.2167 162.7500 56° Northeast 479 551 37,000  Level Anchorage Center
Fri 10:31:57 AM 49.7000 166.2167 58° Northeast 485 558 37,000  Level Anchorage Center
Fri 10:37:42 AM 50.1000 167.2167 59° Northeast 483 556 37,000  Level Anchorage Center
Fri 10:49:36 AM 50.8667 169.3000 62° Northeast 490 564 37,000  Level Anchorage Center
Fri 10:50:37 AM 50.9333 169.5000 58° Northeast 470 541 37,000  Level Anchorage Center
Fri 10:51:37 AM 51.0000 169.6667 62° Northeast 480 552 37,000  Level Anchorage Center
Fri 10:52:36 AM 51.0667 169.8667 62° Northeast 480 552 37,000  Level Anchorage Center
Fri 10:53:36 AM 51.1333 170.0667 55° Northeast 480 552 37,000  Level Anchorage Center
Fri 10:54:37 AM 51.2000 170.2167 64° Northeast 480 552 37,000  Level Anchorage Center
Fri 10:55:37 AM 51.2500 170.3833 62° Northeast 470 541 37,000  Level Anchorage Center
Fri 10:56:36 AM 51.3167 170.5833 64° Northeast 480 552 37,000  Level Anchorage Center
Fri 10:57:37 AM 51.3833 170.8000 64° Northeast 490 564 37,000  Level Anchorage Center
Fri 10:58:37 AM 51.4333 170.9667 64° Northeast 490 564 37,000  Level Anchorage Center
Fri 10:59:37 AM 51.5000 171.1833 82° East 480 552 37,000  Level Anchorage Center
Fri 11:00:37 AM 51.5167 171.3667 79° East 500 575 37,000  Level Anchorage Center
Fri 11:01:37 AM 51.5500 171.6333 84° East 520 598 37,000  Level Anchorage Center
Fri 11:02:37 AM 51.5667 171.8833 82° East 530 610 37,000  Level Anchorage Center
Fri 11:03:37 AM 51.5833 172.0833 84° East 530 610 37,000  Level Anchorage Center
Fri 11:04:37 AM 51.6000 172.3333 82° East 520 598 37,000  Level Anchorage Center
Fri 11:05:37 AM 51.6167 172.5333 84° East 520 598 37,000  Level Anchorage Center
Fri 11:06:37 AM 51.6333 172.7833 82° East 520 598 37,000  Level Anchorage Center
Fri 11:07:38 AM 51.6500 172.9833 84° East 520 598 37,000  Level Anchorage Center
Fri 11:08:37 AM 51.6667 173.2333 84° East 520 598 37,000  Level Anchorage Center
Fri 11:09:38 AM 51.6833 173.5000 82° East 530 610 37,000  Level Anchorage Center
Fri 11:10:37 AM 51.7000 173.7000 84° East 520 598 37,000  Level Anchorage Center
Fri 11:11:38 AM 51.7167 173.9500 82° East 530 610 37,000  Level Anchorage Center
Fri 11:12:38 AM 51.7333 174.1500 84° East 520 598 37,000  Level Anchorage Center
Fri 11:13:38 AM 51.7500 174.4000 90° East 510 587 37,000  Level Anchorage Center
Fri 11:14:38 AM 51.7500 174.6000 84° East 520 598 37,000  Level Anchorage Center
Fri 11:15:38 AM 51.7667 174.8500 84° East 520 598 37,000  Level Anchorage Center
Fri 11:16:38 AM 51.7833 175.1000 82° East 510 587 37,000  Level Anchorage Center
Fri 11:17:38 AM 51.8000 175.3000 90° East 520 598 37,000  Level Anchorage Center
Fri 11:18:38 AM 51.8000 175.5500 82° East 520 598 37,000  Level Anchorage Center
Fri 11:19:38 AM 51.8167 175.7500 84° East 520 598 37,000  Level Anchorage Center
Fri 11:20:38 AM 51.8333 176.0000 82° East 520 598 37,000  Level Anchorage Center
Fri 11:21:38 AM 51.8500 176.2000 90° East 510 587 37,000  Level Anchorage Center
Fri 11:22:38 AM 51.8500 176.4667 84° East 520 598 37,000  Level Anchorage Center
Fri 11:23:38 AM 51.8667 176.7167 90° East 510 587 37,000  Level Anchorage Center
Fri 11:24:39 AM 51.8667 176.9167 84° East 510 587 37,000  Level Anchorage Center
Fri 11:25:39 AM 51.8833 177.1667 82° East 520 598 37,000  Level Anchorage Center
Fri 11:26:39 AM 51.9000 177.3667 84° East 510 587 37,000  Level Anchorage Center
Fri 11:27:38 AM 51.9167 177.6167 90° East 520 598 37,000  Level Anchorage Center
Fri 11:28:39 AM 51.9167 177.8167 84° East 510 587 37,000  Level Anchorage Center
Fri 11:29:40 AM 51.9333 178.0667 82° East 510 587 37,000  Level Anchorage Center
Fri 11:30:39 AM 51.9500 178.2667 84° East 500 575 37,000  Level Anchorage Center
Fri 11:31:39 AM 51.9667 178.5167 90° East 510 587 37,000  Level Anchorage Center
Fri 11:32:39 AM 51.9667 178.7667 82° East 510 587 37,000  Level Anchorage Center
Fri 11:33:39 AM 51.9833 178.9667 84° East 510 587 37,000  Level Anchorage Center
Fri 11:34:39 AM 52.0000 179.2167 90° East 510 587 37,000  Level Anchorage Center
Fri 11:35:39 AM 52.0000 179.4167 84° East 510 587 37,000  Level Anchorage Center
Fri 11:36:39 AM 52.0167 179.6667 90° East 510 587 37,000  Level Anchorage Center
Fri 11:37:39 AM 52.0167 179.8667 84° East 510 587 37,000  Level Anchorage Center
Fri 11:38:39 AM 52.0333 -179.8667 83° East 520 598 37,000  Level Anchorage Center
Fri 11:39:39 AM 52.0500 -179.6500 90° East 510 587 37,000  Level Anchorage Center
Fri 11:40:39 AM 52.0500 -179.4000 86° East 500 575 37,000  Level Anchorage Center
Fri 11:57:39 AM 52.1333 -175.4833 90° East 507 583 37,000  Level Anchorage Center
Fri 12:21:33 PM 52.0000 -170.0000 85° East 523 602 37,000  Level Anchorage Center
Fri 12:24:21 PM 52.0333 -169.3333 87° East 521 600 37,000  Level Anchorage Center
Fri 12:46:26 PM 52.1000 -164.1833 90° East 520 598 37,000  Level Oakland Oceanic (ODAPS)
Fri 12:46:46 PM 52.1000 -164.1167 91° East 517 595 37,000  Level Oakland Oceanic (ODAPS)
Fri 01:04:25 PM 52.0000 -160.0000 86° East 522 601 37,000  Level Oakland Oceanic (ODAPS)
Fri 01:13:23 PM 52.0667 -157.9500 88° East 522 601 37,000 56 Level Oakland Oceanic (ODAPS)
Fri 01:39:53 PM 52.0500 -151.6333 92° East 517 595 39,000 60 Climbing Oakland Oceanic (ODAPS)
Fri 01:46:59 PM 52.0000 -150.0000 95° East 510 587 39,000  Level Oakland Oceanic (ODAPS)
Fri 02:06:18 PM 51.6500 -145.4667 90° East 515 593 39,000  Level Oakland Oceanic (ODAPS)
Fri 02:06:34 PM 51.6500 -145.4167 99° East 514 592 39,000  Level Oakland Oceanic (ODAPS)
Fri 02:31:22 PM 51.0000 -140.0000 100° East 518 596 39,000  Level Oakland Oceanic (ODAPS)
Fri 02:33:17 PM 50.9333 -139.4167 101° East 512 589 39,000  Level Oakland Oceanic (ODAPS)
Fri 02:50:56 PM 50.3833 -135.5667 106° East 511 588 39,000  Level Oakland Oceanic (ODAPS)
Fri 02:59:00 PM 50.0667 -133.8833 98° East 410 472 39,000  Level Vancouver Center
Fri 02:59:47 PM 50.0500 -133.7000 110° East 467 537 39,000  Level Oakland Oceanic (ODAPS)
Fri 03:01:00 PM 50.0000 -133.4833 97° East 490 564 39,000  Level Vancouver Center
Fri 03:02:00 PM 49.9833 -133.2667 90° East 500 575 39,000  Level Vancouver Center
Fri 03:03:00 PM 49.9833 -133.0333 98° East 500 575 39,000  Level Vancouver Center
Fri 03:04:00 PM 49.9667 -132.8500 107° East 500 575 39,000  Level Vancouver Center
Fri 03:05:00 PM 49.9167 -132.6000 106° East 500 575 39,000  Level Vancouver Center
Fri 03:06:00 PM 49.8833 -132.4167 103° East 500 575 39,000  Level Vancouver Center
Fri 03:07:00 PM 49.8500 -132.2000 103° East 500 575 39,000  Level Vancouver Center
Fri 03:08:00 PM 49.8167 -131.9833 106° East 500 575 39,000  Level Vancouver Center
Fri 03:09:00 PM 49.7833 -131.8000 103° East 500 575 39,000  Level Vancouver Center
Fri 03:10:00 PM 49.7500 -131.5833 103° East 500 575 39,000  Level Vancouver Center
Fri 03:11:00 PM 49.7167 -131.3667 111° Southeast 510 587 39,000  Level Vancouver Center
Fri 03:12:00 PM 49.6667 -131.1667 103° East 500 575 39,000  Level Vancouver Center
Fri 03:13:00 PM 49.6333 -130.9500 103° East 500 575 39,000  Level Vancouver Center
Fri 03:14:00 PM 49.6000 -130.7333 106° East 510 587 39,000  Level Vancouver Center
Fri 03:15:00 PM 49.5667 -130.5500 108° East 500 575 39,000  Level Vancouver Center
Fri 03:16:00 PM 49.5167 -130.3167 104° East 510 587 39,000  Level Vancouver Center
Fri 03:17:00 PM 49.4833 -130.1167 104° East 500 575 39,000  Level Vancouver Center
Fri 03:18:00 PM 49.4500 -129.9167 109° East 500 575 39,000  Level Vancouver Center
Fri 03:19:00 PM 49.4000 -129.7000 106° East 500 575 39,000  Level Vancouver Center
Fri 03:20:00 PM 49.3667 -129.5167 111° Southeast 500 575 39,000  Level Vancouver Center
Fri 03:21:00 PM 49.3167 -129.3167 103° East 500 575 39,000  Level Vancouver Center
Fri 03:22:00 PM 49.2833 -129.1000 103° East 500 575 39,000  Level Vancouver Center
Fri 03:23:00 PM 49.2500 -128.8833 111° Southeast 500 575 39,000  Level Vancouver Center
Fri 03:24:00 PM 49.2000 -128.6833 103° East 500 575 39,000  Level Vancouver Center
Fri 03:25:00 PM 49.1667 -128.4667 113° Southeast 500 575 39,000  Level Vancouver Center
Fri 03:26:00 PM 49.1167 -128.2833 104° East 500 575 39,000  Level Vancouver Center
Fri 03:27:00 PM 49.0833 -128.0833 109° East 500 575 39,000  Level Vancouver Center
Fri 03:28:00 PM 49.0333 -127.8667 115° Southeast 500 575 39,000  Level Vancouver Center
Fri 03:29:00 PM 48.9833 -127.7000 103° East 490 564 39,000  Level Vancouver Center
Fri 03:30:00 PM 48.9500 -127.4833 112° Southeast 500 575 39,000  Level Vancouver Center
Fri 03:31:00 PM 48.9000 -127.3000 102° East 490 564 39,000  Level Vancouver Center
Fri 03:32:00 PM 48.8667 -127.0667 114° Southeast 490 564 39,000  Level Vancouver Center
Fri 03:33:00 PM 48.8167 -126.9000 103° East 490 564 39,000  Level Vancouver Center
Fri 03:34:33 PM 48.7658 -126.5789 109° East 495 570 39,000  Level Seattle Center
Fri 03:35:35 PM 48.7208 -126.3822 109° East 495 570 39,000  Level Seattle Center
Fri 03:36:36 PM 48.6756 -126.1847 109° East 497 572 39,000  Level Seattle Center
Fri 03:37:37 PM 48.6294 -125.9878 110° East 498 573 39,000  Level Seattle Center
Fri 03:38:39 PM 48.5833 -125.7917 110° East 497 572 39,000 -439 Level Seattle Center
Fri 03:39:40 PM 48.5367 -125.6006 110° East 493 567 38,100 -1,475 Descending Seattle Center
Fri 03:40:41 PM 48.4894 -125.4078 109° East 491 565 36,000 -2,066 Descending Seattle Center
Fri 03:41:42 PM 48.4367 -125.1833 110° East 478 550 33,900 -1,854 Descending Seattle Center
Fri 03:42:44 PM 48.3922 -125.0011 110° East 468 539 32,200 -1,415 Descending Seattle Center
Fri 03:43:45 PM 48.3492 -124.8247 111° Southeast 459 528 31,000 -1,426 Descending Seattle Center
Fri 03:44:46 PM 48.3044 -124.6519 103° East 438 504 29,300 -1,561 Descending Seattle Center
Fri 03:45:48 PM 48.2808 -124.4931 102° East 427 491 27,800 -1,268 Descending Seattle Center
Fri 03:46:49 PM 48.2519 -124.2944 103° East 410 472 26,700 -1,131 Descending Seattle Center
Fri 03:47:50 PM 48.2292 -124.1417 103° East 382 440 25,500 -1,366 Descending Seattle Center
Fri 03:48:52 PM 48.2064 -123.9919 102° East 373 429 23,900 -1,415 Descending Seattle Center
Fri 03:49:53 PM 48.1850 -123.8442 103° East 368 423 22,600 -1,672 Descending Seattle Center
Fri 03:50:54 PM 48.1631 -123.6994 102° East 361 415 20,500 -1,869 Descending Seattle Center
Fri 03:51:55 PM 48.1417 -123.5506 109° East 364 419 18,800 -1,512 Descending Seattle Center
Fri 03:52:57 PM 48.1086 -123.4097 110° East 362 417 17,400 -1,317 Descending Seattle Center
Fri 03:53:58 PM 48.0744 -123.2731 111° Southeast 353 406 16,100 -1,131 Descending Seattle Center
Fri 03:54:59 PM 48.0372 -123.1272 111° Southeast 328 377 15,100 -1,131 Descending Seattle Center
Fri 03:56:00 PM 48.0075 -123.0092 111° Southeast 311 358 13,800 -1,171 Descending Seattle Center
Fri 03:57:02 PM 47.9778 -122.8936 110° East 303 349 12,700 -1,073 Descending Seattle Center
Fri 03:58:03 PM 47.9503 -122.7833 131° Southeast 290 334 11,600 -1,082 Descending Seattle Center
Fri 03:59:04 PM 47.9011 -122.6992 103° East 277 319 10,500 -836 Descending Seattle Center
Fri 04:00:05 PM 47.8842 -122.5914 96° East 273 314 9,900 -683 Descending Seattle Center
Fri 04:01:07 PM 47.8769 -122.4919 99° East 244 281 9,100 -1,073 Descending Seattle Center
Fri 04:02:08 PM 47.8672 -122.3978 140° Southeast 233 268 7,700 -1,279 Descending Seattle Center
Fri 04:03:09 PM 47.8125 -122.3286 166° South 226 260 6,500 -1,062 Descending Seattle Center
Fri 04:04:18 PM 47.7519 -122.3061 181° South 210 242 5,400 -934 Descending Seattle Center
Fri 04:05:11 PM 47.6983 -122.3072 180° South 209 241 4,600 -730 Descending Seattle Center
Fri 04:06:13 PM 47.6450 -122.3072 180° South 194 223 4,000 -829 Descending Seattle Center
Fri 04:07:14 PM 47.5867 -122.3075 180° South 195 224 2,900 -918 Descending Seattle Center
Fri 04:09:16 PM 47.4992 -122.3083 180° South 147 169 1,200 -787 Descending Seattle Center
Fri 04:10:17 PM 47.4642 -122.3086 180° South 131 151 500 -689 Descending Seattle Center

Login

Don't have an account? Register now (free) for customized features, flight alerts, and more!